sensor_id;sensor_type;location;lat;lon;timestamp;pressure;altitude;pressure_sealevel;temperature;humidity
68197;BME280;55019;49.382;11.358;2023-02-18T00:01:40;97239.47;;;9.02;100.00
68197;BME280;55019;49.382;11.358;2023-02-18T00:04:05;97240.03;;;8.96;100.00
68197;BME280;55019;49.382;11.358;2023-02-18T00:06:33;97249.50;;;8.96;100.00
68197;BME280;55019;49.382;11.358;2023-02-18T00:08:59;97246.94;;;8.96;100.00
68197;BME280;55019;49.382;11.358;2023-02-18T00:11:27;97240.56;;;9.00;100.00
68197;BME280;55019;49.382;11.358;2023-02-18T00:13:58;97241.50;;;8.99;100.00
68197;BME280;55019;49.382;11.358;2023-02-18T00:16:25;97242.34;;;8.99;100.00
68197;BME280;55019;49.382;11.358;2023-02-18T00:18:55;97261.31;;;8.98;100.00
68197;BME280;55019;49.382;11.358;2023-02-18T00:21:21;97248.44;;;8.98;100.00
68197;BME280;55019;49.382;11.358;2023-02-18T00:23:47;97248.44;;;8.98;100.00
68197;BME280;55019;49.382;11.358;2023-02-18T00:26:14;97248.28;;;9.00;100.00
68197;BME280;55019;49.382;11.358;2023-02-18T00:28:40;97246.38;;;8.92;100.00
68197;BME280;55019;49.382;11.358;2023-02-18T00:31:08;97245.97;;;8.87;100.00
68197;BME280;55019;49.382;11.358;2023-02-18T00:33:35;97247.19;;;8.83;100.00
68197;BME280;55019;49.382;11.358;2023-02-18T00:36:07;97240.03;;;8.77;100.00
68197;BME280;55019;49.382;11.358;2023-02-18T00:38:33;97244.78;;;8.72;100.00
68197;BME280;55019;49.382;11.358;2023-02-18T00:40:59;97249.25;;;8.70;100.00
68197;BME280;55019;49.382;11.358;2023-02-18T00:43:25;97248.28;;;8.71;100.00
68197;BME280;55019;49.382;11.358;2023-02-18T00:45:51;97251.56;;;8.73;100.00
68197;BME280;55019;49.382;11.358;2023-02-18T00:48:16;97240.03;;;8.77;100.00
68197;BME280;55019;49.382;11.358;2023-02-18T00:50:42;97245.84;;;8.79;100.00
68197;BME280;55019;49.382;11.358;2023-02-18T00:53:07;97251.94;;;8.78;100.00
68197;BME280;55019;49.382;11.358;2023-02-18T00:55:38;97243.44;;;8.78;100.00
68197;BME280;55019;49.382;11.358;2023-02-18T00:58:03;97245.72;;;8.81;100.00
68197;BME280;55019;49.382;11.358;2023-02-18T01:00:29;97243.84;;;8.83;100.00
68197;BME280;55019;49.382;11.358;2023-02-18T01:02:54;97246.25;;;8.84;100.00
68197;BME280;55019;49.382;11.358;2023-02-18T01:05:20;97250.47;;;8.85;100.00
68197;BME280;55019;49.382;11.358;2023-02-18T01:07:45;97257.22;;;8.86;100.00
68197;BME280;55019;49.382;11.358;2023-02-18T01:10:11;97253.44;;;8.90;100.00
68197;BME280;55019;49.382;11.358;2023-02-18T01:12:36;97251.00;;;8.89;100.00
68197;BME280;55019;49.382;11.358;2023-02-18T01:15:03;97238.13;;;8.89;100.00
68197;BME280;55019;49.382;11.358;2023-02-18T01:17:29;97247.19;;;8.83;100.00
68197;BME280;55019;49.382;11.358;2023-02-18T01:19:55;97253.19;;;8.84;100.00
68197;BME280;55019;49.382;11.358;2023-02-18T01:22:20;97252.09;;;8.86;100.00
68197;BME280;55019;49.382;11.358;2023-02-18T01:24:46;97245.84;;;8.79;100.00
68197;BME280;55019;49.382;11.358;2023-02-18T01:27:11;97246.41;;;8.83;100.00
68197;BME280;55019;49.382;11.358;2023-02-18T01:29:36;97245.31;;;8.76;100.00
68197;BME280;55019;49.382;11.358;2023-02-18T01:32:02;97241.25;;;8.73;100.00
68197;BME280;55019;49.382;11.358;2023-02-18T01:34:27;97241.13;;;8.65;100.00
68197;BME280;55019;49.382;11.358;2023-02-18T01:36:52;97252.38;;;8.64;100.00
68197;BME280;55019;49.382;11.358;2023-02-18T01:39:18;97244.22;;;8.59;100.00
68197;BME280;55019;49.382;11.358;2023-02-18T01:41:43;97258.31;;;8.56;100.00
68197;BME280;55019;49.382;11.358;2023-02-18T01:44:19;97254.41;;;8.52;100.00
68197;BME280;55019;49.382;11.358;2023-02-18T01:46:45;97253.16;;;8.46;100.00
68197;BME280;55019;49.382;11.358;2023-02-18T01:49:14;97249.34;;;8.41;100.00
68197;BME280;55019;49.382;11.358;2023-02-18T01:51:46;97244.47;;;8.38;100.00
68197;BME280;55019;49.382;11.358;2023-02-18T01:59:26;97253.00;;;8.38;100.00
68197;BME280;55019;49.382;11.358;2023-02-18T02:01:52;97253.66;;;8.31;100.00
68197;BME280;55019;49.382;11.358;2023-02-18T02:04:18;97250.41;;;8.29;100.00
68197;BME280;55019;49.382;11.358;2023-02-18T02:06:44;97244.91;;;8.43;100.00
68197;BME280;55019;49.382;11.358;2023-02-18T02:09:15;97244.63;;;8.36;100.00
68197;BME280;55019;49.382;11.358;2023-02-18T02:21:02;97221.81;;;8.32;100.00
68197;BME280;55019;49.382;11.358;2023-02-18T02:27:01;97223.03;;;8.28;100.00
68197;BME280;55019;49.382;11.358;2023-02-18T02:36:11;97217.38;;;8.24;100.00
68197;BME280;55019;49.382;11.358;2023-02-18T02:38:17;97218.16;;;8.25;100.00
68197;BME280;55019;49.382;11.358;2023-02-18T02:40:58;97204.59;;;8.23;100.00
68197;BME280;55019;49.382;11.358;2023-02-18T02:46:29;97202.31;;;8.20;100.00
68197;BME280;55019;49.382;11.358;2023-02-18T02:54:16;97195.53;;;8.19;100.00
68197;BME280;55019;49.382;11.358;2023-02-18T02:56:42;97207.34;;;8.21;100.00
68197;BME280;55019;49.382;11.358;2023-02-18T02:59:13;97196.72;;;8.15;100.00
68197;BME280;55019;49.382;11.358;2023-02-18T03:07:18;97197.84;;;8.22;100.00
68197;BME280;55019;49.382;11.358;2023-02-18T03:15:42;97184.56;;;8.26;100.00
68197;BME280;55019;49.382;11.358;2023-02-18T03:20:59;97189.44;;;8.20;100.00
68197;BME280;55019;49.382;11.358;2023-02-18T03:23:32;97168.25;;;8.16;100.00
68197;BME280;55019;49.382;11.358;2023-02-18T03:26:00;97184.00;;;8.23;100.00
68197;BME280;55019;49.382;11.358;2023-02-18T03:28:29;97187.81;;;8.19;100.00
68197;BME280;55019;49.382;11.358;2023-02-18T03:31:01;97184.97;;;8.22;100.00
68197;BME280;55019;49.382;11.358;2023-02-18T03:33:42;97189.44;;;8.20;100.00
68197;BME280;55019;49.382;11.358;2023-02-18T03:36:10;97190.38;;;8.19;100.00
68197;BME280;55019;49.382;11.358;2023-02-18T03:38:52;97192.97;;;8.19;100.00
68197;BME280;55019;49.382;11.358;2023-02-18T03:41:18;97195.25;;;8.22;100.00
68197;BME280;55019;49.382;11.358;2023-02-18T03:43:51;97198.94;;;8.19;100.00
68197;BME280;55019;49.382;11.358;2023-02-18T03:46:17;97192.97;;;8.19;100.00
68197;BME280;55019;49.382;11.358;2023-02-18T03:48:43;97188.22;;;8.24;100.00
68197;BME280;55019;49.382;11.358;2023-02-18T03:51:08;97198.00;;;8.20;100.00
68197;BME280;55019;49.382;11.358;2023-02-18T03:53:34;97193.19;;;8.16;100.00
68197;BME280;55019;49.382;11.358;2023-02-18T03:55:59;97193.63;;;8.21;100.00
68197;BME280;55019;49.382;11.358;2023-02-18T03:58:24;97192.25;;;8.17;100.00
68197;BME280;55019;49.382;11.358;2023-02-18T04:00:50;97203.81;;;8.22;100.00
68197;BME280;55019;49.382;11.358;2023-02-18T04:03:15;97195.75;;;8.16;100.00
68197;BME280;55019;49.382;11.358;2023-02-18T04:05:41;97192.16;;;8.18;100.00
68197;BME280;55019;49.382;11.358;2023-02-18T04:08:06;97187.47;;;8.12;100.00
68197;BME280;55019;49.382;11.358;2023-02-18T04:10:32;97204.34;;;8.26;100.00
68197;BME280;55019;49.382;11.358;2023-02-18T04:12:57;97187.97;;;8.17;100.00
68197;BME280;55019;49.382;11.358;2023-02-18T04:15:22;97210.84;;;8.20;100.00
68197;BME280;55019;49.382;11.358;2023-02-18T04:17:48;97181.81;;;8.09;100.00
68197;BME280;55019;49.382;11.358;2023-02-18T04:20:13;97185.84;;;8.11;100.00
68197;BME280;55019;49.382;11.358;2023-02-18T04:22:40;97200.41;;;8.22;100.00
68197;BME280;55019;49.382;11.358;2023-02-18T04:25:06;97205.16;;;8.26;100.00
68197;BME280;55019;49.382;11.358;2023-02-18T04:27:32;97201.72;;;8.16;100.00
68197;BME280;55019;49.382;11.358;2023-02-18T04:29:57;97192.38;;;8.15;100.00
68197;BME280;55019;49.382;11.358;2023-02-18T04:32:23;97196.88;;;8.23;100.00
68197;BME280;55019;49.382;11.358;2023-02-18T04:34:48;97183.59;;;8.18;100.00
68197;BME280;55019;49.382;11.358;2023-02-18T04:37:14;97193.91;;;8.18;100.00
68197;BME280;55019;49.382;11.358;2023-02-18T04:39:39;97195.41;;;8.20;100.00
68197;BME280;55019;49.382;11.358;2023-02-18T04:42:04;97181.03;;;8.18;100.00
68197;BME280;55019;49.382;11.358;2023-02-18T04:44:34;97192.41;;;8.25;100.00
68197;BME280;55019;49.382;11.358;2023-02-18T04:47:00;97185.38;;;8.27;100.00
68197;BME280;55019;49.382;11.358;2023-02-18T04:49:25;97176.56;;;8.20;100.00
68197;BME280;55019;49.382;11.358;2023-02-18T04:51:51;97187.28;;;8.25;100.00
68197;BME280;55019;49.382;11.358;2023-02-18T04:54:16;97174.00;;;8.20;100.00
68197;BME280;55019;49.382;11.358;2023-02-18T04:56:41;97189.72;;;8.26;100.00
68197;BME280;55019;49.382;11.358;2023-02-18T04:59:07;97192.16;;;8.28;100.00
68197;BME280;55019;49.382;11.358;2023-02-18T05:01:32;97189.31;;;8.31;100.00
68197;BME280;55019;49.382;11.358;2023-02-18T05:03:57;97193.50;;;8.22;100.00
68197;BME280;55019;49.382;11.358;2023-02-18T05:06:23;97192.16;;;8.28;100.00
68197;BME280;55019;49.382;11.358;2023-02-18T05:08:48;97192.16;;;8.28;100.00
68197;BME280;55019;49.382;11.358;2023-02-18T05:11:14;97196.63;;;8.26;100.00
68197;BME280;55019;49.382;11.358;2023-02-18T05:13:39;97182.94;;;8.25;100.00
68197;BME280;55019;49.382;11.358;2023-02-18T05:16:04;97184.97;;;8.22;100.00
68197;BME280;55019;49.382;11.358;2023-02-18T05:18:30;97184.00;;;8.23;100.00
68197;BME280;55019;49.382;11.358;2023-02-18T05:20:55;97188.63;;;8.19;100.00
68197;BME280;55019;49.382;11.358;2023-02-18T05:23:21;97171.25;;;8.12;100.00
68197;BME280;55019;49.382;11.358;2023-02-18T05:25:46;97178.53;;;8.16;100.00
68197;BME280;55019;49.382;11.358;2023-02-18T05:28:12;97182.34;;;8.12;100.00
68197;BME280;55019;49.382;11.358;2023-02-18T05:30:37;97189.59;;;8.18;100.00
68197;BME280;55019;49.382;11.358;2023-02-18T05:33:03;97170.41;;;8.11;100.00
68197;BME280;55019;49.382;11.358;2023-02-18T05:35:28;97179.13;;;8.20;100.00
68197;BME280;55019;49.382;11.358;2023-02-18T05:37:54;97186.41;;;8.15;100.00
68197;BME280;55019;49.382;11.358;2023-02-18T05:40:19;97175.72;;;8.10;100.00
68197;BME280;55019;49.382;11.358;2023-02-18T05:42:44;97182.06;;;8.15;100.00
68197;BME280;55019;49.382;11.358;2023-02-18T05:45:10;97177.75;;;8.16;100.00
68197;BME280;55019;49.382;11.358;2023-02-18T05:47:35;97177.19;;;8.12;100.00
68197;BME280;55019;49.382;11.358;2023-02-18T05:50:02;97185.84;;;8.11;100.00
68197;BME280;55019;49.382;11.358;2023-02-18T05:52:27;97172.88;;;8.13;100.00
68197;BME280;55019;49.382;11.358;2023-02-18T05:54:52;97183.69;;;8.07;100.00
68197;BME280;55019;49.382;11.358;2023-02-18T05:57:18;97181.53;;;8.12;100.00
68197;BME280;55019;49.382;11.358;2023-02-18T05:59:43;97174.63;;;8.03;100.00
68197;BME280;55019;49.382;11.358;2023-02-18T06:02:09;97184.13;;;8.12;100.00
68197;BME280;55019;49.382;11.358;2023-02-18T06:04:34;97179.75;;;8.12;100.00
68197;BME280;55019;49.382;11.358;2023-02-18T06:07:00;97173.53;;;8.05;100.00
68197;BME280;55019;49.382;11.358;2023-02-18T06:09:25;97180.84;;;8.10;100.00
68197;BME280;55019;49.382;11.358;2023-02-18T06:11:50;97165.81;;;8.05;100.00
68197;BME280;55019;49.382;11.358;2023-02-18T06:14:16;97160.38;;;8.08;100.00
68197;BME280;55019;49.382;11.358;2023-02-18T06:16:42;97182.34;;;8.12;100.00
68197;BME280;55019;49.382;11.358;2023-02-18T06:19:07;97176.66;;;8.09;100.00
68197;BME280;55019;49.382;11.358;2023-02-18T06:21:33;97186.41;;;8.15;100.00
68197;BME280;55019;49.382;11.358;2023-02-18T06:23:58;97181.03;;;8.18;100.00
68197;BME280;55019;49.382;11.358;2023-02-18T06:26:23;97164.47;;;8.11;100.00
68197;BME280;55019;49.382;11.358;2023-02-18T06:28:49;97168.25;;;8.16;100.00
68197;BME280;55019;49.382;11.358;2023-02-18T06:31:14;97170.75;;;8.18;100.00
68197;BME280;55019;49.382;11.358;2023-02-18T06:33:40;97184.28;;;8.20;100.00
68197;BME280;55019;49.382;11.358;2023-02-18T06:36:07;97187.28;;;8.25;100.00
68197;BME280;55019;49.382;11.358;2023-02-18T06:38:36;97174.81;;;8.20;100.00
68197;BME280;55019;49.382;11.358;2023-02-18T06:41:02;97173.19;;;8.19;100.00
68197;BME280;55019;49.382;11.358;2023-02-18T06:43:27;97158.78;;;8.17;100.00
68197;BME280;55019;49.382;11.358;2023-02-18T06:45:53;97161.78;;;8.22;100.00
68197;BME280;55019;49.382;11.358;2023-02-18T06:48:18;97160.72;;;8.24;100.00
68197;BME280;55019;49.382;11.358;2023-02-18T06:50:44;97164.25;;;8.23;100.00
68197;BME280;55019;49.382;11.358;2023-02-18T06:53:10;97169.94;;;8.17;100.00
68197;BME280;55019;49.382;11.358;2023-02-18T06:55:35;97163.94;;;8.17;100.00
68197;BME280;55019;49.382;11.358;2023-02-18T06:58:01;97172.66;;;8.25;100.00
68197;BME280;55019;49.382;11.358;2023-02-18T07:00:26;97156.59;;;8.12;100.00
68197;BME280;55019;49.382;11.358;2023-02-18T07:02:52;97154.69;;;8.14;100.00
68197;BME280;55019;49.382;11.358;2023-02-18T07:05:17;97156.13;;;8.18;100.00
68197;BME280;55019;49.382;11.358;2023-02-18T07:07:43;97143.88;;;8.11;100.00
68197;BME280;55019;49.382;11.358;2023-02-18T07:10:10;97162.47;;;8.24;100.00
68197;BME280;55019;49.382;11.358;2023-02-18T07:12:35;97149.06;;;8.20;100.00
68197;BME280;55019;49.382;11.358;2023-02-18T07:15:01;97153.13;;;8.23;100.00
68197;BME280;55019;49.382;11.358;2023-02-18T07:17:26;97162.34;;;8.25;100.00
68197;BME280;55019;49.382;11.358;2023-02-18T07:19:51;97150.69;;;8.21;100.00
68197;BME280;55019;49.382;11.358;2023-02-18T07:22:17;97150.81;;;8.20;100.00
68197;BME280;55019;49.382;11.358;2023-02-18T07:24:43;97142.00;;;8.13;100.00
68197;BME280;55019;49.382;11.358;2023-02-18T07:27:09;97143.63;;;8.14;100.00
68197;BME280;55019;49.382;11.358;2023-02-18T07:29:34;97141.47;;;8.19;100.00
68197;BME280;55019;49.382;11.358;2023-02-18T07:32:00;97135.63;;;8.17;100.00
68197;BME280;55019;49.382;11.358;2023-02-18T07:34:25;97147.44;;;8.19;100.00
68197;BME280;55019;49.382;11.358;2023-02-18T07:36:51;97134.94;;;8.15;100.00
68197;BME280;55019;49.382;11.358;2023-02-18T07:39:16;97141.19;;;8.22;100.00
68197;BME280;55019;49.382;11.358;2023-02-18T07:41:46;97143.25;;;8.28;100.00
68197;BME280;55019;49.382;11.358;2023-02-18T07:44:12;97133.16;;;8.15;100.00
68197;BME280;55019;49.382;11.358;2023-02-18T07:46:39;97136.06;;;8.22;100.00
68197;BME280;55019;49.382;11.358;2023-02-18T07:49:05;97148.00;;;8.32;100.00
68197;BME280;55019;49.382;11.358;2023-02-18T07:51:31;97144.31;;;8.35;100.00
68197;BME280;55019;49.382;11.358;2023-02-18T07:53:56;97130.63;;;8.25;100.00
68197;BME280;55019;49.382;11.358;2023-02-18T07:56:21;97130.66;;;8.34;100.00
68197;BME280;55019;49.382;11.358;2023-02-18T07:58:47;97137.25;;;8.37;100.00
68197;BME280;55019;49.382;11.358;2023-02-18T08:01:14;97111.00;;;8.33;100.00
68197;BME280;55019;49.382;11.358;2023-02-18T08:03:39;97128.06;;;8.44;100.00
68197;BME280;55019;49.382;11.358;2023-02-18T08:06:06;97136.47;;;8.46;100.00
68197;BME280;55019;49.382;11.358;2023-02-18T08:08:31;97136.31;;;8.47;100.00
68197;BME280;55019;49.382;11.358;2023-02-18T08:11:00;97127.53;;;8.50;100.00
68197;BME280;55019;49.382;11.358;2023-02-18T08:13:31;97126.03;;;8.57;100.00
68197;BME280;55019;49.382;11.358;2023-02-18T08:15:57;97121.28;;;8.61;100.00
68197;BME280;55019;49.382;11.358;2023-02-18T08:18:23;97126.41;;;8.61;100.00
68197;BME280;55019;49.382;11.358;2023-02-18T08:20:49;97118.81;;;8.60;100.00
68197;BME280;55019;49.382;11.358;2023-02-18T08:23:20;97122.63;;;8.65;100.00
68197;BME280;55019;49.382;11.358;2023-02-18T08:25:48;97126.41;;;8.61;100.00
68197;BME280;55019;49.382;11.358;2023-02-18T08:28:15;97121.66;;;8.57;100.00
68197;BME280;55019;49.382;11.358;2023-02-18T08:30:48;97121.28;;;8.61;100.00
68197;BME280;55019;49.382;11.358;2023-02-18T08:33:14;97114.59;;;8.78;100.00
68197;BME280;55019;49.382;11.358;2023-02-18T08:35:41;97109.25;;;9.35;100.00
68197;BME280;55019;49.382;11.358;2023-02-18T08:38:07;97101.44;;;10.33;100.00
68197;BME280;55019;49.382;11.358;2023-02-18T08:40:32;97094.31;;;10.95;94.97
68197;BME280;55019;49.382;11.358;2023-02-18T08:42:58;97103.34;;;11.25;95.07
68197;BME280;55019;49.382;11.358;2023-02-18T08:45:23;97103.47;;;11.15;94.54
68197;BME280;55019;49.382;11.358;2023-02-18T08:47:48;97095.97;;;10.79;94.28
68197;BME280;55019;49.382;11.358;2023-02-18T08:50:14;97089.00;;;10.11;99.08
68197;BME280;55019;49.382;11.358;2023-02-18T08:52:39;97082.28;;;9.91;99.38
68197;BME280;55019;49.382;11.358;2023-02-18T08:55:05;97092.66;;;9.64;100.00
68197;BME280;55019;49.382;11.358;2023-02-18T08:57:30;97099.06;;;9.60;100.00
68197;BME280;55019;49.382;11.358;2023-02-18T08:59:56;97094.59;;;9.62;100.00
68197;BME280;55019;49.382;11.358;2023-02-18T09:02:21;97102.00;;;9.48;100.00
68197;BME280;55019;49.382;11.358;2023-02-18T09:04:47;97085.31;;;9.42;100.00
68197;BME280;55019;49.382;11.358;2023-02-18T09:07:13;97093.78;;;9.35;100.00
68197;BME280;55019;49.382;11.358;2023-02-18T09:09:38;97082.41;;;9.28;100.00
68197;BME280;55019;49.382;11.358;2023-02-18T09:12:04;97082.25;;;9.29;100.00
68197;BME280;55019;49.382;11.358;2023-02-18T09:14:29;97070.38;;;9.46;100.00
68197;BME280;55019;49.382;11.358;2023-02-18T09:16:56;97074.28;;;9.77;99.71
68197;BME280;55019;49.382;11.358;2023-02-18T09:19:22;97056.47;;;9.56;99.74
68197;BME280;55019;49.382;11.358;2023-02-18T09:21:48;97057.22;;;9.66;100.00
68197;BME280;55019;49.382;11.358;2023-02-18T09:24:13;97048.78;;;9.47;99.41
68197;BME280;55019;49.382;11.358;2023-02-18T09:26:38;97051.53;;;9.63;98.66
68197;BME280;55019;49.382;11.358;2023-02-18T09:29:05;97050.59;;;9.81;98.67
68197;BME280;55019;49.382;11.358;2023-02-18T09:31:31;97045.44;;;9.81;98.03
68197;BME280;55019;49.382;11.358;2023-02-18T09:34:00;97036.50;;;9.93;96.15
68197;BME280;55019;49.382;11.358;2023-02-18T09:36:27;97035.09;;;9.81;94.80
68197;BME280;55019;49.382;11.358;2023-02-18T09:38:53;97043.75;;;9.90;96.46
68197;BME280;55019;49.382;11.358;2023-02-18T09:41:37;97045.88;;;9.77;95.71
68197;BME280;55019;49.382;11.358;2023-02-18T09:44:09;97039.41;;;9.73;96.95
68197;BME280;55019;49.382;11.358;2023-02-18T09:46:40;97052.34;;;9.63;95.55
68197;BME280;55019;49.382;11.358;2023-02-18T09:49:14;97048.56;;;9.58;96.46
68197;BME280;55019;49.382;11.358;2023-02-18T09:51:40;97049.97;;;9.52;95.44
68197;BME280;55019;49.382;11.358;2023-02-18T09:54:10;97046.44;;;9.53;95.88
68197;BME280;55019;49.382;11.358;2023-02-18T09:56:36;97044.53;;;9.55;96.19
68197;BME280;55019;49.382;11.358;2023-02-18T09:59:04;97037.75;;;9.54;95.61
68197;BME280;55019;49.382;11.358;2023-02-18T10:01:36;97028.75;;;9.58;95.89
68197;BME280;55019;49.382;11.358;2023-02-18T10:04:09;97031.66;;;9.73;94.61
68197;BME280;55019;49.382;11.358;2023-02-18T10:06:37;97026.25;;;9.66;94.62
68197;BME280;55019;49.382;11.358;2023-02-18T10:09:08;97031.84;;;9.62;94.21
68197;BME280;55019;49.382;11.358;2023-02-18T10:11:42;97032.44;;;9.73;94.18
68197;BME280;55019;49.382;11.358;2023-02-18T10:14:12;97029.22;;;9.71;95.88
68197;BME280;55019;49.382;11.358;2023-02-18T10:16:39;97033.34;;;9.64;94.23
68197;BME280;55019;49.382;11.358;2023-02-18T10:19:55;97023.63;;;9.76;94.05
68197;BME280;55019;49.382;11.358;2023-02-18T10:22:15;97036.13;;;9.88;92.24
68197;BME280;55019;49.382;11.358;2023-02-18T10:25:00;97032.81;;;9.96;91.92
68197;BME280;55019;49.382;11.358;2023-02-18T10:27:30;97036.91;;;9.98;92.60
68197;BME280;55019;49.382;11.358;2023-02-18T10:32:54;97017.78;;;9.91;92.01
68197;BME280;55019;49.382;11.358;2023-02-18T10:38:23;97011.94;;;9.89;91.33
68197;BME280;55019;49.382;11.358;2023-02-18T10:41:14;97012.31;;;9.94;90.82
68197;BME280;55019;49.382;11.358;2023-02-18T10:43:58;97009.16;;;10.00;91.23
68197;BME280;55019;49.382;11.358;2023-02-18T10:52:02;96994.28;;;10.96;86.56
68197;BME280;55019;49.382;11.358;2023-02-18T10:55:03;96979.88;;;11.43;82.15
68197;BME280;55019;49.382;11.358;2023-02-18T10:57:30;96988.06;;;12.51;76.78
68197;BME280;55019;49.382;11.358;2023-02-18T11:02:35;96973.84;;;12.07;77.27
68197;BME280;55019;49.382;11.358;2023-02-18T11:05:11;96962.19;;;11.71;78.49
68197;BME280;55019;49.382;11.358;2023-02-18T11:07:45;96981.78;;;11.90;77.60
68197;BME280;55019;49.382;11.358;2023-02-18T11:10:31;96976.91;;;12.19;74.95
68197;BME280;55019;49.382;11.358;2023-02-18T11:13:28;96977.72;;;11.95;76.13
68197;BME280;55019;49.382;11.358;2023-02-18T11:16:01;96961.72;;;11.92;75.65
68197;BME280;55019;49.382;11.358;2023-02-18T11:18:38;96958.94;;;11.69;77.22
68197;BME280;55019;49.382;11.358;2023-02-18T11:23:51;96938.78;;;11.24;76.42
68197;BME280;55019;49.382;11.358;2023-02-18T11:26:22;96942.78;;;11.10;78.34
68197;BME280;55019;49.382;11.358;2023-02-18T11:28:57;96948.13;;;11.09;78.53
68197;BME280;55019;49.382;11.358;2023-02-18T11:31:25;96941.66;;;11.05;76.97
68197;BME280;55019;49.382;11.358;2023-02-18T11:33:57;96942.31;;;11.15;75.48
68197;BME280;55019;49.382;11.358;2023-02-18T11:36:34;96916.44;;;11.07;77.40
68197;BME280;55019;49.382;11.358;2023-02-18T11:41:44;96923.25;;;11.08;76.41
68197;BME280;55019;49.382;11.358;2023-02-18T11:49:41;96921.19;;;11.27;75.46
68197;BME280;55019;49.382;11.358;2023-02-18T11:52:23;96908.72;;;11.23;74.19
68197;BME280;55019;49.382;11.358;2023-02-18T11:55:06;96898.72;;;11.43;74.27
68197;BME280;55019;49.382;11.358;2023-02-18T11:57:34;96904.22;;;11.41;73.96
68197;BME280;55019;49.382;11.358;2023-02-18T12:00:04;96886.44;;;11.53;74.52
68197;BME280;55019;49.382;11.358;2023-02-18T12:02:40;96893.38;;;11.45;74.14
68197;BME280;55019;49.382;11.358;2023-02-18T12:05:18;96892.13;;;11.57;73.67
68197;BME280;55019;49.382;11.358;2023-02-18T12:07:51;96892.13;;;11.57;72.41
68197;BME280;55019;49.382;11.358;2023-02-18T12:16:08;96888.56;;;11.58;72.21
68197;BME280;55019;49.382;11.358;2023-02-18T12:21:35;96872.88;;;11.83;70.03
68197;BME280;55019;49.382;11.358;2023-02-18T12:33:35;96880.28;;;12.18;66.68
68197;BME280;55019;49.382;11.358;2023-02-18T12:35:48;96871.34;;;12.21;66.67
68197;BME280;55019;49.382;11.358;2023-02-18T12:43:50;96868.16;;;12.57;64.18
68197;BME280;55019;49.382;11.358;2023-02-18T12:52:27;96856.22;;;12.40;65.81
68197;BME280;55019;49.382;11.358;2023-02-18T13:14:21;96870.25;;;11.36;70.18
68197;BME280;55019;49.382;11.358;2023-02-18T13:16:53;96866.06;;;11.35;70.84
68197;BME280;55019;49.382;11.358;2023-02-18T13:19:23;96865.25;;;11.34;71.05
68197;BME280;55019;49.382;11.358;2023-02-18T13:21:56;96854.72;;;11.28;72.26
68197;BME280;55019;49.382;11.358;2023-02-18T13:24:31;96847.16;;;11.42;71.50
68197;BME280;55019;49.382;11.358;2023-02-18T13:35:47;96851.16;;;11.44;68.76
68197;BME280;55019;49.382;11.358;2023-02-18T13:38:47;96833.25;;;11.43;69.76
68197;BME280;55019;49.382;11.358;2023-02-18T13:41:15;96827.25;;;11.35;69.73
68197;BME280;55019;49.382;11.358;2023-02-18T13:43:41;96812.69;;;11.42;70.21
68197;BME280;55019;49.382;11.358;2023-02-18T13:46:16;96823.88;;;11.34;69.99
68197;BME280;55019;49.382;11.358;2023-02-18T13:48:52;96828.53;;;11.31;69.83
68197;BME280;55019;49.382;11.358;2023-02-18T13:54:07;96829.50;;;11.14;70.62
68197;BME280;55019;49.382;11.358;2023-02-18T13:57:04;96826.59;;;11.01;71.22
68197;BME280;55019;49.382;11.358;2023-02-18T13:59:46;96842.09;;;11.01;70.86
68197;BME280;55019;49.382;11.358;2023-02-18T14:10:25;96840.97;;;11.03;71.28
68197;BME280;55019;49.382;11.358;2023-02-18T14:18:54;96846.31;;;11.02;70.78
68197;BME280;55019;49.382;11.358;2023-02-18T14:23:37;96830.28;;;10.98;71.38
68197;BME280;55019;49.382;11.358;2023-02-18T14:36:33;96831.06;;;10.91;71.85
68197;BME280;55019;49.382;11.358;2023-02-18T14:50:45;96843.81;;;10.76;72.67
68197;BME280;55019;49.382;11.358;2023-02-18T14:53:14;96840.41;;;10.76;72.34
68197;BME280;55019;49.382;11.358;2023-02-18T14:55:48;96837.16;;;10.66;72.91
68197;BME280;55019;49.382;11.358;2023-02-18T14:58:39;96844.59;;;10.69;72.79
68197;BME280;55019;49.382;11.358;2023-02-18T15:03:39;96847.81;;;10.63;73.68
68197;BME280;55019;49.382;11.358;2023-02-18T15:06:41;96848.47;;;10.65;73.36
68197;BME280;55019;49.382;11.358;2023-02-18T15:09:18;96853.28;;;10.60;74.71
68197;BME280;55019;49.382;11.358;2023-02-18T15:11:55;96851.97;;;10.48;78.34
68197;BME280;55019;49.382;11.358;2023-02-18T15:14:29;96860.25;;;10.26;80.13
68197;BME280;55019;49.382;11.358;2023-02-18T15:16:56;96857.06;;;10.06;81.46
68197;BME280;55019;49.382;11.358;2023-02-18T15:19:29;96850.13;;;9.82;83.68
68197;BME280;55019;49.382;11.358;2023-02-18T15:21:56;96858.91;;;9.71;85.90
68197;BME280;55019;49.382;11.358;2023-02-18T15:24:26;96860.00;;;9.69;85.59
68197;BME280;55019;49.382;11.358;2023-02-18T15:26:58;96866.91;;;9.60;87.46
68197;BME280;55019;49.382;11.358;2023-02-18T15:29:27;96870.44;;;9.59;86.98
68197;BME280;55019;49.382;11.358;2023-02-18T15:31:54;96835.44;;;9.57;87.84
68197;BME280;55019;49.382;11.358;2023-02-18T15:36:53;96884.91;;;9.52;88.66
68197;BME280;55019;49.382;11.358;2023-02-18T15:39:19;96881.06;;;9.39;90.64
68197;BME280;55019;49.382;11.358;2023-02-18T15:41:45;96887.19;;;9.38;90.80
68197;BME280;55019;49.382;11.358;2023-02-18T15:44:23;96887.03;;;9.39;90.92
68197;BME280;55019;49.382;11.358;2023-02-18T15:46:50;96897.94;;;9.33;90.60
68197;BME280;55019;49.382;11.358;2023-02-18T15:49:23;96886.28;;;9.29;90.99
68197;BME280;55019;49.382;11.358;2023-02-18T15:51:50;96877.25;;;9.25;91.33
68197;BME280;55019;49.382;11.358;2023-02-18T15:54:21;96886.88;;;9.23;92.54
68197;BME280;55019;49.382;11.358;2023-02-18T15:56:53;96900.00;;;9.30;92.95